createdAt,value
2023-01-11T00:02:25.177Z,1.25
2023-01-11T00:04:53.087Z,1.00
2023-01-11T00:07:22.311Z,0.70
2023-01-11T00:09:50.366Z,1.02
2023-01-11T00:12:18.244Z,0.98
2023-01-11T00:14:46.182Z,0.60
2023-01-11T00:17:14.060Z,0.82
2023-01-11T00:19:42.011Z,0.93
2023-01-11T00:22:09.944Z,0.60
2023-01-11T00:24:39.325Z,1.30
2023-01-11T00:27:07.246Z,0.63
2023-01-11T00:29:35.315Z,1.15
2023-01-11T00:32:03.284Z,1.05
2023-01-11T00:34:31.245Z,0.80
2023-01-11T00:36:59.147Z,1.20
2023-01-11T00:39:27.131Z,0.65
2023-01-11T00:42:25.217Z,1.77
2023-01-11T00:45:10.688Z,0.55
2023-01-11T00:47:56.003Z,0.77
2023-01-11T00:50:24.136Z,0.80
2023-01-11T00:52:52.124Z,0.90
2023-01-11T00:55:20.212Z,1.33
2023-01-11T00:57:49.508Z,0.65
2023-01-11T01:00:18.192Z,0.90
2023-01-11T01:02:46.609Z,0.50
2023-01-11T01:05:15.306Z,0.60
2023-01-11T01:07:43.490Z,0.60
2023-01-11T01:10:13.009Z,0.95
2023-01-11T01:12:58.911Z,1.00
2023-01-11T01:15:28.353Z,0.88
2023-01-11T01:17:57.772Z,1.10
2023-01-11T01:20:26.530Z,1.10
2023-01-11T01:22:54.562Z,0.95
2023-01-11T01:25:22.911Z,0.65
2023-01-11T01:27:50.778Z,0.90
2023-01-11T01:30:19.031Z,0.85
2023-01-11T01:32:48.596Z,0.68
2023-01-11T01:35:16.739Z,1.10
2023-01-11T01:37:45.173Z,1.10
2023-01-11T01:40:14.033Z,0.50
2023-01-11T01:42:41.890Z,0.52
2023-01-11T01:45:20.146Z,0.40
2023-01-11T01:47:53.073Z,0.70
2023-01-11T01:50:24.202Z,0.50
2023-01-11T01:52:56.339Z,1.20
2023-01-11T01:55:29.827Z,0.30
2023-01-11T01:58:00.161Z,0.40
2023-01-11T02:00:28.231Z,0.40
2023-01-11T02:02:59.482Z,0.30
2023-01-11T02:05:28.212Z,0.40
2023-01-11T02:07:59.081Z,0.80
2023-01-11T02:10:28.946Z,0.60
2023-01-11T02:13:01.480Z,0.70
2023-01-11T02:15:30.807Z,0.75
2023-01-11T02:18:00.058Z,0.55
2023-01-11T02:20:43.268Z,0.50
2023-01-11T02:23:31.566Z,0.65
2023-01-11T02:26:32.655Z,0.57
2023-01-11T02:29:08.483Z,1.08
2023-01-11T02:31:42.231Z,1.00
2023-01-11T02:34:25.338Z,0.70
2023-01-11T02:37:12.590Z,0.57
2023-01-11T02:39:50.622Z,0.52
2023-01-11T02:42:50.031Z,0.50
2023-01-11T02:45:27.665Z,0.50
2023-01-11T02:48:00.873Z,0.40
2023-01-11T02:50:35.373Z,0.50
2023-01-11T02:53:08.652Z,0.88
2023-01-11T02:55:42.512Z,0.70
2023-01-11T02:58:13.223Z,0.40
2023-01-11T03:00:43.593Z,0.40
2023-01-11T03:03:16.210Z,0.65
2023-01-11T03:05:50.249Z,0.68
2023-01-11T03:09:04.214Z,0.55
2023-01-11T03:12:06.278Z,0.50
2023-01-11T03:14:46.812Z,0.57
2023-01-11T03:17:26.019Z,0.50
2023-01-11T03:19:55.639Z,0.60
2023-01-11T03:22:29.672Z,0.47
2023-01-11T03:25:08.015Z,0.60
2023-01-11T03:27:46.949Z,0.40
2023-01-11T03:30:19.811Z,1.05
2023-01-11T03:32:52.795Z,0.50
2023-01-11T03:35:29.121Z,0.60
2023-01-11T03:38:02.218Z,1.33
2023-01-11T03:40:33.614Z,0.85
2023-01-11T03:43:14.330Z,0.85
2023-01-11T03:45:47.832Z,0.50
2023-01-11T03:48:20.938Z,0.80
2023-01-11T03:50:50.439Z,0.65
2023-01-11T03:53:20.729Z,0.80
2023-01-11T03:55:54.297Z,0.45
2023-01-11T03:58:22.325Z,0.50
2023-01-11T04:00:51.228Z,0.50
2023-01-11T04:03:20.444Z,0.43
2023-01-11T04:05:53.254Z,1.23
2023-01-11T04:08:21.405Z,0.70
2023-01-11T04:10:49.297Z,0.73
2023-01-11T04:13:17.199Z,0.80
2023-01-11T04:15:45.175Z,0.70
2023-01-11T04:18:13.170Z,0.77
2023-01-11T04:20:42.698Z,0.70
2023-01-11T04:23:11.209Z,0.80
2023-01-11T04:25:39.267Z,0.50
2023-01-11T04:28:07.236Z,0.60
2023-01-11T04:30:36.024Z,0.52
2023-01-11T04:33:04.163Z,0.50
2023-01-11T04:35:32.139Z,0.40
2023-01-11T04:38:01.387Z,0.50
2023-01-11T04:40:29.337Z,0.40
2023-01-11T04:42:56.298Z,0.75
2023-01-11T04:45:24.271Z,0.40
2023-01-11T04:47:56.119Z,0.47
2023-01-11T04:50:24.708Z,0.38
2023-01-11T04:52:53.074Z,0.70
2023-01-11T04:55:22.765Z,0.30
2023-01-11T04:57:50.743Z,0.40
2023-01-11T05:00:19.467Z,0.63
2023-01-11T05:02:49.442Z,0.40
2023-01-11T05:05:17.401Z,0.60
2023-01-11T05:07:45.570Z,0.47
2023-01-11T05:10:13.538Z,0.60
2023-01-11T05:12:42.782Z,0.50
2023-01-11T05:15:12.699Z,0.38
2023-01-11T05:17:40.592Z,0.50
2023-01-11T05:20:09.938Z,0.70
2023-01-11T05:22:37.907Z,0.85
2023-01-11T05:25:06.807Z,0.50
2023-01-11T05:27:34.710Z,0.82
2023-01-11T05:30:04.115Z,0.57
2023-01-11T05:32:32.077Z,0.50
2023-01-11T05:34:59.988Z,0.40
2023-01-11T05:37:27.890Z,0.60
2023-01-11T05:39:55.825Z,0.40
2023-01-11T05:42:23.745Z,0.63
2023-01-11T05:45:09.316Z,0.30
2023-01-11T05:47:38.599Z,0.50
2023-01-11T05:50:07.205Z,0.40
2023-01-11T05:52:35.089Z,0.47
2023-01-11T05:55:03.024Z,1.00
2023-01-11T05:57:30.969Z,0.30
2023-01-11T05:59:58.870Z,0.40
2023-01-11T06:02:26.896Z,0.30
2023-01-11T06:04:56.283Z,0.50
2023-01-11T06:07:25.511Z,0.50
2023-01-11T06:09:53.502Z,0.30
2023-01-11T06:12:21.454Z,0.82
2023-01-11T06:14:49.403Z,0.40
2023-01-11T06:17:17.348Z,0.30
2023-01-11T06:19:45.251Z,1.80
2023-01-11T06:22:14.469Z,0.60
2023-01-11T06:24:42.378Z,1.00
2023-01-11T06:27:10.282Z,0.90
2023-01-11T06:29:38.190Z,0.45
2023-01-11T06:32:09.392Z,0.40
2023-01-11T06:34:37.323Z,0.30
2023-01-11T06:37:05.235Z,0.40
2023-01-11T06:39:34.917Z,0.40
2023-01-11T06:42:02.808Z,0.30
2023-01-11T06:44:30.726Z,0.50
2023-01-11T06:46:58.952Z,0.30
2023-01-11T06:49:27.205Z,0.70
2023-01-11T06:51:55.705Z,0.20
2023-01-11T06:54:25.597Z,0.90
2023-01-11T06:56:54.918Z,0.68
2023-01-11T06:59:22.958Z,0.47
2023-01-11T07:01:51.105Z,0.70
2023-01-11T07:04:19.832Z,0.30
2023-01-11T07:06:47.747Z,0.30
2023-01-11T07:09:15.742Z,0.20
2023-01-11T07:11:43.637Z,0.30
2023-01-11T07:14:19.809Z,0.30
2023-01-11T07:16:47.747Z,0.38
2023-01-11T07:19:15.749Z,0.30
2023-01-11T07:21:43.651Z,0.30
2023-01-11T07:24:11.607Z,1.10
2023-01-11T07:26:41.452Z,2.60
2023-01-11T07:29:09.667Z,1.95
2023-01-11T07:31:38.910Z,0.50
2023-01-11T07:34:06.840Z,0.40
2023-01-11T07:36:39.339Z,0.20
2023-01-11T07:39:07.638Z,0.30
2023-01-11T07:41:53.168Z,0.65
2023-01-11T07:44:21.354Z,0.38
2023-01-11T07:46:50.720Z,0.20
2023-01-11T07:49:18.745Z,0.55
2023-01-11T07:51:46.764Z,0.30
2023-01-11T07:54:14.780Z,0.30
2023-01-11T07:56:42.632Z,0.30
2023-01-11T07:59:10.960Z,0.30
2023-01-11T08:01:39.039Z,0.25
2023-01-11T08:04:11.911Z,0.30
2023-01-11T08:06:40.208Z,0.30
2023-01-11T08:09:08.661Z,0.43
2023-01-11T08:11:53.931Z,0.20
2023-01-11T08:14:40.603Z,0.50
2023-01-11T08:17:08.979Z,0.30
2023-01-11T08:19:38.274Z,0.40
2023-01-11T08:22:06.777Z,0.30
2023-01-11T08:24:35.670Z,0.30
2023-01-11T08:27:04.356Z,0.30
2023-01-11T08:29:32.431Z,0.30
2023-01-11T08:32:00.678Z,0.30
2023-01-11T08:34:29.582Z,0.40
2023-01-11T08:37:01.835Z,0.30
2023-01-11T08:39:30.991Z,0.50
2023-01-11T08:41:59.313Z,0.30
2023-01-11T08:44:35.033Z,0.50
2023-01-11T08:47:03.153Z,0.40
2023-01-11T08:49:31.341Z,0.50
2023-01-11T08:52:00.589Z,0.20
2023-01-11T08:54:28.517Z,0.30
2023-01-11T08:56:56.701Z,0.20
2023-01-11T08:59:24.668Z,0.30
2023-01-11T09:01:52.624Z,0.30
2023-01-11T09:04:25.256Z,0.30
2023-01-11T09:06:53.970Z,0.30
2023-01-11T09:09:23.712Z,0.20
2023-01-11T09:11:58.806Z,0.30
2023-01-11T09:14:28.196Z,0.23
2023-01-11T09:16:57.347Z,0.20
2023-01-11T09:19:25.616Z,0.20
2023-01-11T09:21:56.089Z,0.30
2023-01-11T09:24:25.369Z,0.80
2023-01-11T09:26:53.306Z,0.47
2023-01-11T09:29:21.379Z,0.40
2023-01-11T09:31:49.323Z,0.50
2023-01-11T09:34:17.389Z,1.10
2023-01-11T09:36:47.397Z,0.30
2023-01-11T09:39:18.695Z,0.30
2023-01-11T09:42:31.624Z,0.40
2023-01-11T09:45:07.115Z,0.30
2023-01-11T09:47:41.048Z,0.40
2023-01-11T09:50:16.085Z,0.30
2023-01-11T09:52:46.258Z,0.30
2023-01-11T09:55:20.146Z,0.30
2023-01-11T09:58:02.319Z,0.30
2023-01-11T10:00:40.287Z,0.53
2023-01-11T10:03:31.122Z,0.30
2023-01-11T10:06:09.099Z,0.47
2023-01-11T10:18:22.339Z,0.37
2023-01-11T10:18:31.449Z,0.30
2023-01-11T10:20:50.480Z,0.40
2023-01-11T10:23:25.079Z,0.30
2023-01-11T10:25:57.992Z,0.50
2023-01-11T10:28:35.213Z,0.40
2023-01-11T10:31:28.743Z,0.77
2023-01-11T10:34:18.500Z,1.20
2023-01-11T10:37:10.869Z,0.90
2023-01-11T10:40:14.543Z,0.90
2023-01-11T10:42:48.647Z,1.20
2023-01-11T10:45:19.459Z,1.10
2023-01-11T10:47:55.961Z,1.03
2023-01-11T10:50:29.012Z,3.90
2023-01-11T10:53:06.794Z,7.40
2023-01-11T10:55:46.319Z,4.53
2023-01-11T10:58:23.269Z,0.50
2023-01-11T11:01:00.964Z,0.80
2023-01-11T11:04:01.754Z,0.50
2023-01-11T11:06:40.920Z,0.50
2023-01-11T11:09:17.485Z,0.30
2023-01-11T11:11:53.190Z,0.70
2023-01-11T11:14:28.628Z,0.40
2023-01-11T11:17:04.451Z,0.50
2023-01-11T11:19:34.190Z,0.40
2023-01-11T11:22:03.489Z,0.33
2023-01-11T11:24:36.994Z,0.30
2023-01-11T11:27:20.528Z,0.50
2023-01-11T11:29:52.177Z,0.63
2023-01-11T11:32:25.384Z,0.70
2023-01-11T11:34:54.685Z,0.30
2023-01-11T11:37:27.218Z,0.37
2023-01-11T11:39:56.269Z,0.40
2023-01-11T11:42:24.788Z,0.40
2023-01-11T11:45:16.288Z,0.30
2023-01-11T11:47:44.962Z,0.33
2023-01-11T11:50:43.696Z,0.30
2023-01-11T11:53:27.494Z,0.33
2023-01-11T11:55:56.046Z,0.40
2023-01-11T11:58:25.805Z,2.80
2023-01-11T12:00:54.654Z,1.20
2023-01-11T12:03:28.311Z,0.70
2023-01-11T12:06:00.677Z,0.50
2023-01-11T12:08:32.348Z,0.50
2023-01-11T12:11:02.760Z,0.50
2023-01-11T12:13:33.617Z,0.50
2023-01-11T12:16:03.598Z,0.53
2023-01-11T12:18:41.119Z,0.50
2023-01-11T12:21:16.789Z,0.40
2023-01-11T12:23:46.520Z,0.50
2023-01-11T12:26:22.957Z,0.70
2023-01-11T12:29:09.152Z,0.50
2023-01-11T12:31:50.128Z,0.50
2023-01-11T12:34:32.043Z,1.17
2023-01-11T12:37:12.139Z,0.50
2023-01-11T12:39:48.475Z,0.20
2023-01-11T12:42:45.576Z,0.30
2023-01-11T12:45:22.143Z,0.87
2023-01-11T12:48:06.668Z,0.40
2023-01-11T12:50:42.483Z,0.30
2023-01-11T12:53:30.822Z,0.40
2023-01-11T12:56:24.917Z,0.60
2023-01-11T12:58:59.657Z,0.47
2023-01-11T13:01:43.558Z,0.70
2023-01-11T13:04:46.247Z,0.33
2023-01-11T13:07:25.845Z,0.40
2023-01-11T13:10:17.967Z,0.40
2023-01-11T13:12:53.037Z,0.50
2023-01-11T13:15:34.653Z,1.30
2023-01-11T13:18:13.552Z,0.77
2023-01-11T13:21:00.566Z,4.50
2023-01-11T13:23:39.072Z,2.23
2023-01-11T13:26:21.280Z,3.73
2023-01-11T13:28:55.911Z,2.33
2023-01-11T13:31:24.965Z,0.57
2023-01-11T13:34:00.130Z,0.67
2023-01-11T13:36:32.693Z,0.60
2023-01-11T13:39:10.633Z,0.63
2023-01-11T13:41:47.211Z,0.47
2023-01-11T13:44:21.995Z,0.40
2023-01-11T13:47:05.127Z,0.40
2023-01-11T13:49:44.903Z,0.80
2023-01-11T13:52:15.255Z,0.67
2023-01-11T13:54:54.397Z,1.23
2023-01-11T13:57:31.425Z,0.50
2023-01-11T14:00:06.555Z,0.70
2023-01-11T14:02:47.345Z,0.47
2023-01-11T14:05:18.933Z,0.97
2023-01-11T14:08:00.965Z,0.83
2023-01-11T14:10:48.244Z,0.80
2023-01-11T14:13:59.186Z,0.40
2023-01-11T14:16:39.707Z,0.50
2023-01-11T14:19:17.975Z,0.30
2023-01-11T14:21:58.447Z,0.27
2023-01-11T14:24:29.648Z,0.57
2023-01-11T14:27:42.187Z,0.67
2023-01-11T14:30:54.944Z,0.47
2023-01-11T14:34:14.814Z,0.60
2023-01-11T14:37:26.199Z,0.40
2023-01-11T14:40:48.034Z,0.40
2023-01-11T14:44:05.584Z,0.40
2023-01-11T14:47:26.669Z,0.40
2023-01-11T14:50:27.864Z,0.40
2023-01-11T14:53:22.446Z,0.40
2023-01-11T14:56:34.721Z,0.60
2023-01-11T14:59:34.671Z,0.47
2023-01-11T15:02:27.175Z,0.50
2023-01-11T15:05:36.414Z,0.20
2023-01-11T15:08:19.398Z,0.30
2023-01-11T15:10:57.882Z,0.27
2023-01-11T15:13:29.127Z,0.40
2023-01-11T15:16:28.191Z,0.23
2023-01-11T15:18:57.190Z,0.30
2023-01-11T15:21:29.669Z,0.30
2023-01-11T15:23:59.350Z,0.43
2023-01-11T15:26:28.246Z,0.20
2023-01-11T15:29:49.675Z,0.20
2023-01-11T15:32:20.327Z,0.40
2023-01-11T15:34:49.263Z,0.30
2023-01-11T15:37:44.742Z,0.20
2023-01-11T15:40:20.417Z,0.23
2023-01-11T15:43:20.930Z,0.53
2023-01-11T15:46:31.696Z,0.30
2023-01-11T15:49:26.282Z,0.27
2023-01-11T15:52:09.777Z,1.90
2023-01-11T15:55:12.799Z,3.37
2023-01-11T15:58:19.828Z,1.90
2023-01-11T16:01:08.846Z,3.13
2023-01-11T16:04:01.117Z,1.67
2023-01-11T16:06:40.887Z,0.63
2023-01-11T16:09:38.100Z,0.77
2023-01-11T16:12:36.656Z,0.77
2023-01-11T16:15:26.396Z,0.40
2023-01-11T16:17:55.057Z,1.30
2023-01-11T16:20:26.070Z,0.60
2023-01-11T16:22:57.482Z,0.20
2023-01-11T16:25:30.489Z,0.60
2023-01-11T16:28:01.351Z,0.70
2023-01-11T16:30:30.137Z,1.10
2023-01-11T16:33:15.938Z,0.97
2023-01-11T16:35:44.091Z,0.60
2023-01-11T16:38:18.463Z,0.80
2023-01-11T16:40:50.670Z,0.60
2023-01-11T16:43:25.956Z,0.37
2023-01-11T16:45:55.111Z,0.57
2023-01-11T16:48:24.551Z,0.60
2023-01-11T16:51:02.744Z,0.30
2023-01-11T16:53:32.905Z,0.60
2023-01-11T16:56:05.493Z,0.63
2023-01-11T16:58:36.656Z,0.30
2023-01-11T17:01:07.619Z,0.50
2023-01-11T17:03:38.662Z,0.40
2023-01-11T17:06:27.791Z,1.07
2023-01-11T17:08:59.908Z,0.50
2023-01-11T17:11:35.788Z,0.60
2023-01-11T17:14:35.536Z,0.47
2023-01-11T17:17:06.904Z,0.60
2023-01-11T17:19:49.382Z,0.70
2023-01-11T17:22:21.924Z,2.13
2023-01-11T17:24:55.657Z,1.07
2023-01-11T17:27:28.600Z,2.00
2023-01-11T17:29:59.235Z,0.90
2023-01-11T17:32:35.595Z,2.13
2023-01-11T17:35:06.436Z,2.03
2023-01-11T17:37:35.391Z,1.43
2023-01-11T17:40:05.245Z,3.97
2023-01-11T17:42:52.000Z,1.50
2023-01-11T17:45:25.186Z,1.13
2023-01-11T17:47:58.955Z,1.10
2023-01-11T17:50:33.789Z,1.43
2023-01-11T17:53:07.963Z,1.10
2023-01-11T17:55:39.427Z,1.00
2023-01-11T17:58:19.807Z,1.70
2023-01-11T18:01:11.121Z,0.90
2023-01-11T18:03:44.304Z,2.87
2023-01-11T18:06:14.398Z,0.97
2023-01-11T18:08:47.886Z,0.80
2023-01-11T18:11:24.927Z,1.10
2023-01-11T18:13:54.189Z,0.73
2023-01-11T18:16:26.358Z,1.40
2023-01-11T18:18:55.186Z,1.00
2023-01-11T18:21:41.922Z,1.40
2023-01-11T18:24:28.099Z,0.97
2023-01-11T18:27:17.062Z,0.93
2023-01-11T18:29:50.595Z,1.23
2023-01-11T18:32:20.398Z,1.60
2023-01-11T18:34:52.082Z,3.43
2023-01-11T18:37:20.220Z,6.80
2023-01-11T18:39:48.205Z,1.77
2023-01-11T18:42:19.415Z,3.63
2023-01-11T18:44:49.538Z,1.00
2023-01-11T18:47:21.583Z,0.53
2023-01-11T18:49:50.615Z,1.40
2023-01-11T18:52:20.301Z,0.90
2023-01-11T18:54:48.890Z,0.90
2023-01-11T18:57:16.969Z,0.93
2023-01-11T18:59:44.907Z,0.53
2023-01-11T19:04:55.149Z,0.70
2023-01-11T19:07:24.319Z,0.80
2023-01-11T19:09:54.805Z,0.70
2023-01-11T19:12:23.677Z,0.90
2023-01-11T19:14:52.193Z,0.87
2023-01-11T19:17:21.805Z,0.60
2023-01-11T19:19:49.955Z,1.30
2023-01-11T19:22:17.981Z,1.60
2023-01-11T19:24:46.250Z,1.07
2023-01-11T19:27:15.579Z,1.17
2023-01-11T19:29:43.959Z,1.53
2023-01-11T19:32:11.964Z,1.40
2023-01-11T19:34:41.368Z,0.68
2023-01-11T19:37:09.298Z,0.83
2023-01-11T19:39:37.367Z,0.68
2023-01-11T19:42:06.005Z,0.73
2023-01-11T19:44:38.857Z,0.98
2023-01-11T19:47:12.127Z,0.73
2023-01-11T19:49:43.501Z,0.80
2023-01-11T19:52:14.015Z,0.80
2023-01-11T19:54:43.196Z,1.00
2023-01-11T19:57:11.688Z,1.53
2023-01-11T19:59:39.760Z,4.47
2023-01-11T20:02:12.149Z,12.87
2023-01-11T20:04:42.131Z,3.25
2023-01-11T20:07:11.728Z,1.60
2023-01-11T20:09:39.879Z,1.50
2023-01-11T20:12:10.059Z,1.53
2023-01-11T20:14:40.378Z,2.13
2023-01-11T20:17:09.064Z,1.17
2023-01-11T20:19:39.255Z,2.20
2023-01-11T20:22:08.713Z,1.77
2023-01-11T20:24:37.847Z,2.15
2023-01-11T20:27:06.883Z,1.20
2023-01-11T20:29:34.995Z,0.80
2023-01-11T20:32:31.105Z,1.00
2023-01-11T20:34:55.302Z,1.48
2023-01-11T20:37:24.721Z,2.63
2023-01-11T20:39:53.734Z,2.53
2023-01-11T20:42:22.833Z,2.70
2023-01-11T20:44:52.397Z,5.88
2023-01-11T20:47:24.006Z,4.45
2023-01-11T20:49:52.335Z,5.22
2023-01-11T20:52:20.461Z,4.77
2023-01-11T20:54:50.009Z,3.80
2023-01-11T20:57:18.153Z,7.33
2023-01-11T20:59:46.175Z,3.97
2023-01-11T21:02:14.330Z,2.93
2023-01-11T21:04:42.372Z,1.92
2023-01-11T21:07:10.796Z,2.00
2023-01-11T21:09:42.002Z,2.57
2023-01-11T21:12:11.761Z,2.80
2023-01-11T21:14:40.761Z,2.13
2023-01-11T21:17:09.770Z,2.20
2023-01-11T21:19:37.882Z,2.08
2023-01-11T21:22:08.426Z,2.22
2023-01-11T21:24:38.596Z,1.90
2023-01-11T21:27:09.195Z,1.75
2023-01-11T21:29:38.741Z,2.65
2023-01-11T21:32:07.486Z,2.15
2023-01-11T21:34:36.530Z,2.35
2023-01-11T21:37:04.887Z,1.80
2023-01-11T21:39:33.081Z,1.58
2023-01-11T21:42:06.732Z,1.85
2023-01-11T21:44:38.364Z,2.15
2023-01-11T21:47:08.828Z,2.65
2023-01-11T21:49:37.052Z,2.63
2023-01-11T21:52:12.758Z,1.80
2023-01-11T21:54:40.955Z,1.80
2023-01-11T21:57:13.242Z,2.33
2023-01-11T21:59:41.279Z,2.30
2023-01-11T22:02:11.750Z,1.80
2023-01-11T22:04:42.888Z,2.30
2023-01-11T22:07:11.101Z,1.60
2023-01-11T22:09:59.819Z,1.60
2023-01-11T22:12:33.707Z,2.53
2023-01-11T22:15:01.687Z,1.85
2023-01-11T22:17:31.137Z,2.50
2023-01-11T22:19:59.127Z,2.37
2023-01-11T22:22:28.175Z,1.58
2023-01-11T22:24:56.498Z,1.73
2023-01-11T22:27:24.737Z,1.70
2023-01-11T22:29:54.807Z,1.80
2023-01-11T22:32:22.958Z,3.00
2023-01-11T22:34:52.673Z,1.60
2023-01-11T22:37:20.798Z,2.22
2023-01-11T22:39:48.730Z,2.40
2023-01-11T22:42:17.213Z,2.53
2023-01-11T22:44:45.226Z,1.35
2023-01-11T22:47:13.331Z,1.27
2023-01-11T22:49:41.535Z,1.90
2023-01-11T22:52:10.934Z,1.85
2023-01-11T22:54:38.913Z,2.20
2023-01-11T22:57:06.961Z,1.73
2023-01-11T22:59:34.944Z,1.30
2023-01-11T23:02:02.973Z,1.52
2023-01-11T23:04:30.946Z,1.55
2023-01-11T23:06:58.943Z,1.17
2023-01-11T23:09:28.339Z,1.00
2023-01-11T23:12:13.858Z,1.70
2023-01-11T23:14:41.808Z,1.77
2023-01-11T23:17:10.581Z,0.83
2023-01-11T23:19:40.773Z,1.43
2023-01-11T23:22:16.722Z,1.10
2023-01-11T23:24:46.056Z,1.33
2023-01-11T23:27:14.171Z,1.30
2023-01-11T23:29:42.395Z,0.90
2023-01-11T23:32:12.665Z,0.80
2023-01-11T23:34:40.780Z,1.37
2023-01-11T23:37:09.371Z,1.50
2023-01-11T23:39:37.374Z,1.65
2023-01-11T23:42:24.439Z,1.10
2023-01-11T23:44:52.556Z,1.30
2023-01-11T23:47:23.805Z,1.00
2023-01-11T23:49:53.175Z,1.23
2023-01-11T23:52:24.412Z,1.90
2023-01-11T23:54:52.951Z,1.00
2023-01-11T23:57:37.371Z,1.07
